createdAt,value
2018-03-18T00:01:03.451Z,0.13
2018-03-18T00:03:30.912Z,0.11
2018-03-18T00:05:58.378Z,0.08
2018-03-18T00:08:25.857Z,0.07
2018-03-18T00:10:53.296Z,-0.14
2018-03-18T00:13:20.752Z,-0.09
2018-03-18T00:15:48.358Z,-0.17
2018-03-18T00:18:15.818Z,-0.27
2018-03-18T00:20:43.354Z,-0.20
2018-03-18T00:23:10.859Z,-0.03
2018-03-18T00:25:38.366Z,-0.01
2018-03-18T00:28:05.915Z,0.06
2018-03-18T00:30:33.371Z,0.08
2018-03-18T00:33:00.816Z,0.05
2018-03-18T00:35:28.293Z,0.12
2018-03-18T00:37:55.769Z,0.10
2018-03-18T00:40:23.276Z,-0.06
2018-03-18T00:42:50.734Z,-0.05
2018-03-18T00:45:18.226Z,-0.04
2018-03-18T00:47:45.691Z,-0.06
2018-03-18T00:50:13.183Z,-0.03
2018-03-18T00:52:40.671Z,-0.17
2018-03-18T00:55:08.141Z,0.03
2018-03-18T00:57:35.738Z,0.02
2018-03-18T01:00:03.188Z,0.02
2018-03-18T01:02:30.676Z,-0.01
2018-03-18T01:04:58.153Z,0.06
2018-03-18T01:07:25.627Z,0.09
2018-03-18T01:09:53.082Z,-0.10
2018-03-18T01:12:20.546Z,-0.17
2018-03-18T01:14:48.022Z,-0.13
2018-03-18T01:17:15.502Z,-0.24
2018-03-18T01:19:42.996Z,-0.17
2018-03-18T01:22:10.455Z,-0.22
2018-03-18T01:24:38.012Z,-0.34
2018-03-18T01:27:05.494Z,-0.41
2018-03-18T01:29:32.940Z,-0.48
2018-03-18T01:32:00.497Z,-0.34
2018-03-18T01:34:27.950Z,-0.27
2018-03-18T01:36:55.411Z,-0.33
2018-03-18T01:39:22.885Z,-0.30
2018-03-18T01:41:50.351Z,-0.26
2018-03-18T01:44:17.809Z,-0.24
2018-03-18T01:46:45.331Z,-0.37
2018-03-18T01:49:12.816Z,-0.26
2018-03-18T01:51:40.265Z,-0.29
2018-03-18T01:54:07.725Z,-0.38
2018-03-18T01:56:35.182Z,-0.38
2018-03-18T01:59:02.672Z,-0.39
2018-03-18T02:01:30.133Z,-0.33
2018-03-18T02:03:57.613Z,-0.38
2018-03-18T02:06:25.087Z,-0.40
2018-03-18T02:08:52.628Z,-0.42
2018-03-18T02:11:20.291Z,-0.29
2018-03-18T02:13:47.741Z,-0.33
2018-03-18T02:16:15.216Z,-0.48
2018-03-18T02:18:42.674Z,-0.50
2018-03-18T02:21:10.147Z,-0.42
2018-03-18T02:23:37.605Z,-0.55
2018-03-18T02:26:05.092Z,-0.61
2018-03-18T02:28:32.558Z,-0.71
2018-03-18T02:31:00.012Z,-0.63
2018-03-18T02:33:27.486Z,-0.60
2018-03-18T02:35:54.949Z,-0.67
2018-03-18T02:38:22.411Z,-0.65
2018-03-18T02:40:49.904Z,-0.65
2018-03-18T02:43:17.367Z,-0.67
2018-03-18T02:45:44.847Z,-0.65
2018-03-18T02:48:12.311Z,-0.61
2018-03-18T02:50:39.768Z,-0.60
2018-03-18T02:53:07.242Z,-0.57
2018-03-18T02:55:34.699Z,-0.62
2018-03-18T02:58:02.174Z,-0.55
2018-03-18T03:00:29.647Z,-0.78
2018-03-18T03:02:57.133Z,-0.72
2018-03-18T03:05:24.620Z,-0.65
2018-03-18T03:07:52.101Z,-0.71
2018-03-18T03:10:19.577Z,-0.64
2018-03-18T03:12:47.025Z,-0.70
2018-03-18T03:15:14.511Z,-0.64
2018-03-18T03:17:41.978Z,-0.58
2018-03-18T03:20:09.433Z,-0.59
2018-03-18T03:22:36.885Z,-0.57
2018-03-18T03:25:04.406Z,-0.75
2018-03-18T03:27:31.865Z,-0.76
2018-03-18T03:29:59.318Z,-0.69
2018-03-18T03:32:26.821Z,-0.73
2018-03-18T03:34:54.272Z,-0.78
2018-03-18T03:37:21.781Z,-0.76
2018-03-18T03:39:49.235Z,-0.81
2018-03-18T03:42:16.732Z,-0.77
2018-03-18T03:44:44.189Z,-0.69
2018-03-18T03:47:11.687Z,-0.84
2018-03-18T03:49:39.147Z,-0.80
2018-03-18T03:52:06.618Z,-0.72
2018-03-18T03:54:34.098Z,-0.79
2018-03-18T03:57:01.550Z,-0.69
2018-03-18T03:59:29.013Z,-0.65
2018-03-18T04:01:56.472Z,-0.55
2018-03-18T04:04:23.930Z,-0.73
2018-03-18T04:06:51.389Z,-0.70
2018-03-18T04:09:18.917Z,-0.73
2018-03-18T04:11:46.398Z,-0.72
2018-03-18T04:14:13.902Z,-0.71
2018-03-18T04:16:41.416Z,-0.65
2018-03-18T04:19:19.109Z,-0.76
2018-03-18T04:21:46.570Z,-0.66
2018-03-18T04:24:14.049Z,-0.70
2018-03-18T04:26:41.592Z,-0.66
2018-03-18T04:29:09.037Z,-0.74
2018-03-18T04:31:36.506Z,-0.70
2018-03-18T04:34:04.023Z,-0.75
2018-03-18T04:36:31.494Z,-0.68
2018-03-18T04:38:58.961Z,-0.75
2018-03-18T04:41:26.457Z,-0.68
2018-03-18T04:43:53.951Z,-0.67
2018-03-18T04:46:21.411Z,-0.62
2018-03-18T04:48:48.879Z,-0.60
2018-03-18T04:51:16.331Z,-0.61
2018-03-18T04:53:43.796Z,-0.71
2018-03-18T04:56:11.254Z,-0.69
2018-03-18T04:58:38.714Z,-0.64
2018-03-18T05:01:06.162Z,-0.65
2018-03-18T05:03:33.709Z,-0.58
2018-03-18T05:06:01.162Z,-0.59
2018-03-18T05:08:28.623Z,-0.68
2018-03-18T05:10:56.105Z,-0.61
2018-03-18T05:13:23.564Z,-0.63
2018-03-18T05:15:51.021Z,-0.51
2018-03-18T05:18:18.491Z,-0.65
2018-03-18T05:20:45.985Z,-0.66
2018-03-18T05:23:13.434Z,-0.57
2018-03-18T05:25:40.895Z,-0.58
2018-03-18T05:28:08.373Z,-0.52
2018-03-18T05:30:35.821Z,-0.50
2018-03-18T05:33:03.330Z,-0.48
2018-03-18T05:35:30.787Z,-0.53
2018-03-18T05:37:58.258Z,-0.68
2018-03-18T05:40:25.785Z,-0.53
2018-03-18T05:42:53.233Z,-0.46
2018-03-18T05:45:20.752Z,-0.46
2018-03-18T05:47:48.214Z,-0.61
2018-03-18T05:50:15.704Z,-0.56
2018-03-18T05:52:43.171Z,-0.60
2018-03-18T05:55:10.890Z,-0.54
2018-03-18T05:57:38.368Z,-0.43
2018-03-18T06:00:05.831Z,-0.52
2018-03-18T06:02:33.290Z,-0.47
2018-03-18T06:05:00.751Z,-0.67
2018-03-18T06:07:28.305Z,-0.52
2018-03-18T06:09:55.827Z,-0.46
2018-03-18T06:12:23.323Z,-0.42
2018-03-18T06:14:50.846Z,-0.36
2018-03-18T06:17:18.689Z,-0.41
2018-03-18T06:19:46.184Z,-0.55
2018-03-18T06:22:13.688Z,-0.35
2018-03-18T06:24:41.164Z,-0.53
2018-03-18T06:27:08.694Z,-0.49
2018-03-18T06:29:37.079Z,-0.35
2018-03-18T06:32:04.731Z,-0.26
2018-03-18T06:34:32.439Z,-0.38
2018-03-18T06:36:59.906Z,-0.25
2018-03-18T06:39:27.357Z,-0.32
2018-03-18T06:41:54.899Z,-0.21
2018-03-18T06:44:22.902Z,-0.33
2018-03-18T06:46:50.393Z,-0.18
2018-03-18T06:49:19.417Z,-0.17
2018-03-18T06:51:46.969Z,-0.19
2018-03-18T06:54:14.447Z,-0.34
2018-03-18T06:56:41.963Z,-0.09
2018-03-18T06:59:09.444Z,-0.22
2018-03-18T07:01:36.945Z,-0.04
2018-03-18T07:04:04.379Z,0.06
2018-03-18T07:06:31.831Z,0.17
2018-03-18T07:08:59.305Z,0.09
2018-03-18T07:11:26.765Z,0.20
2018-03-18T07:13:54.234Z,0.42
2018-03-18T07:16:21.729Z,0.29
2018-03-18T07:18:49.203Z,0.22
2018-03-18T07:21:16.669Z,0.13
2018-03-18T07:23:44.126Z,0.21
2018-03-18T07:26:11.606Z,0.18
2018-03-18T07:28:39.077Z,0.09
2018-03-18T07:31:06.528Z,0.17
2018-03-18T07:33:34.005Z,0.23
2018-03-18T07:36:01.532Z,0.23
2018-03-18T07:38:28.984Z,0.47
2018-03-18T07:40:56.438Z,0.51
2018-03-18T07:43:23.955Z,0.59
2018-03-18T07:45:51.412Z,0.67
2018-03-18T07:48:18.892Z,0.76
2018-03-18T07:50:46.569Z,0.52
2018-03-18T07:53:14.018Z,0.51
2018-03-18T07:55:41.486Z,0.69
2018-03-18T07:58:08.945Z,0.70
2018-03-18T08:00:36.408Z,0.78
2018-03-18T08:03:03.986Z,0.73
2018-03-18T08:05:31.533Z,0.85
2018-03-18T08:07:59.251Z,1.11
2018-03-18T08:10:26.828Z,1.01
2018-03-18T08:12:54.285Z,1.07
2018-03-18T08:15:21.866Z,0.97
2018-03-18T08:17:49.446Z,0.95
2018-03-18T08:20:19.210Z,0.91
2018-03-18T08:22:46.897Z,0.82
2018-03-18T08:25:14.449Z,0.91
2018-03-18T08:27:41.907Z,1.06
2018-03-18T08:30:09.357Z,1.18
2018-03-18T08:32:38.061Z,1.18
2018-03-18T08:35:05.579Z,1.52
2018-03-18T08:37:33.036Z,1.32
2018-03-18T08:40:00.591Z,1.37
2018-03-18T08:42:29.841Z,1.50
2018-03-18T08:44:58.206Z,1.27
2018-03-18T08:47:25.686Z,1.70
2018-03-18T08:49:53.183Z,1.79
2018-03-18T08:52:20.707Z,2.12
2018-03-18T08:54:48.138Z,1.94
2018-03-18T08:57:15.611Z,2.21
2018-03-18T08:59:43.090Z,2.40
2018-03-18T09:02:10.861Z,2.58
2018-03-18T09:04:38.321Z,2.55
2018-03-18T09:07:06.070Z,2.20
2018-03-18T09:09:33.560Z,2.12
2018-03-18T09:12:01.132Z,2.52
2018-03-18T09:14:28.618Z,2.48
2018-03-18T09:16:56.104Z,2.31
2018-03-18T09:19:23.602Z,2.64
2018-03-18T09:21:51.067Z,2.58
2018-03-18T09:24:19.081Z,2.70
2018-03-18T09:26:46.663Z,2.89
2018-03-18T09:29:14.404Z,2.63
2018-03-18T09:31:45.494Z,2.63
2018-03-18T09:34:14.510Z,2.49
2018-03-18T09:36:42.412Z,2.79
2018-03-18T09:39:11.085Z,2.77
2018-03-18T09:41:38.891Z,2.82
2018-03-18T09:44:07.205Z,2.86
2018-03-18T09:46:35.198Z,2.71
2018-03-18T09:49:02.755Z,3.29
2018-03-18T09:51:33.282Z,3.29
2018-03-18T09:54:01.292Z,3.02
2018-03-18T09:56:29.261Z,3.11
2018-03-18T09:58:56.853Z,3.58
2018-03-18T10:01:24.397Z,3.92
2018-03-18T10:05:45.727Z,3.89
2018-03-18T10:08:13.185Z,4.01
2018-03-18T10:10:40.719Z,4.20
2018-03-18T10:13:08.159Z,4.80
2018-03-18T10:15:35.657Z,5.06
2018-03-18T10:18:03.114Z,5.83
2018-03-18T10:20:30.586Z,5.81
2018-03-18T10:22:58.050Z,5.89
2018-03-18T10:25:25.502Z,5.53
2018-03-18T10:27:52.958Z,5.42
2018-03-18T10:30:20.422Z,5.23
2018-03-18T10:32:47.880Z,5.34
2018-03-18T10:35:15.351Z,5.51
2018-03-18T10:37:42.804Z,5.65
2018-03-18T10:40:10.302Z,5.28
2018-03-18T10:42:37.768Z,5.85
2018-03-18T10:45:05.219Z,5.81
2018-03-18T10:47:32.686Z,6.21
2018-03-18T10:50:00.169Z,6.58
2018-03-18T10:52:27.617Z,7.17
2018-03-18T10:54:55.087Z,6.91
2018-03-18T10:57:22.538Z,6.69
2018-03-18T10:59:50.011Z,7.39
2018-03-18T11:02:17.488Z,7.60
2018-03-18T11:04:44.996Z,7.66
2018-03-18T11:07:16.720Z,7.41
2018-03-18T11:09:44.251Z,7.45
2018-03-18T11:12:11.854Z,7.23
2018-03-18T11:14:39.323Z,7.61
2018-03-18T11:17:06.787Z,7.11
2018-03-18T11:19:34.233Z,7.06
2018-03-18T11:22:01.719Z,6.93
2018-03-18T11:24:29.179Z,7.32
2018-03-18T11:26:56.694Z,7.07
2018-03-18T11:29:24.267Z,7.39
2018-03-18T11:31:51.764Z,7.31
2018-03-18T11:34:24.016Z,7.57
2018-03-18T11:36:51.510Z,7.84
2018-03-18T11:39:19.825Z,7.94
2018-03-18T11:41:47.276Z,7.25
2018-03-18T11:44:14.745Z,7.05
2018-03-18T11:46:42.232Z,7.44
2018-03-18T11:49:09.766Z,7.04
2018-03-18T11:51:37.210Z,6.71
2018-03-18T11:54:04.709Z,6.63
2018-03-18T11:56:32.188Z,6.61
2018-03-18T11:59:00.953Z,6.32
2018-03-18T12:01:28.641Z,6.17
2018-03-18T12:03:56.093Z,5.92
2018-03-18T12:06:23.576Z,5.51
2018-03-18T12:08:59.739Z,5.13
2018-03-18T12:11:27.182Z,4.98
2018-03-18T12:13:54.648Z,5.20
2018-03-18T12:16:22.110Z,5.36
2018-03-18T12:18:49.566Z,5.72
2018-03-18T12:21:17.030Z,5.47
2018-03-18T12:23:44.491Z,5.34
2018-03-18T12:26:12.519Z,5.70
2018-03-18T12:28:40.029Z,5.76
2018-03-18T12:31:07.544Z,5.64
2018-03-18T12:33:35.286Z,5.36
2018-03-18T12:36:02.750Z,5.29
2018-03-18T12:38:30.223Z,4.72
2018-03-18T12:40:57.783Z,4.69
2018-03-18T12:43:30.341Z,4.50
2018-03-18T12:45:57.884Z,4.78
2018-03-18T12:48:25.389Z,4.35
2018-03-18T12:50:52.842Z,4.55
2018-03-18T12:53:20.484Z,4.90
2018-03-18T12:55:47.959Z,4.91
2018-03-18T12:58:15.398Z,4.36
2018-03-18T13:00:42.850Z,5.10
2018-03-18T13:03:10.387Z,4.78
2018-03-18T13:05:37.908Z,4.74
2018-03-18T13:08:05.356Z,4.31
2018-03-18T13:10:32.854Z,4.17
2018-03-18T13:13:00.340Z,4.01
2018-03-18T13:15:27.797Z,3.52
2018-03-18T13:17:55.286Z,3.56
2018-03-18T13:20:23.097Z,3.26
2018-03-18T13:22:50.541Z,3.36
2018-03-18T13:25:18.018Z,3.52
2018-03-18T13:27:45.459Z,3.23
2018-03-18T13:30:12.937Z,3.60
2018-03-18T13:32:40.385Z,3.49
2018-03-18T13:35:07.880Z,3.66
2018-03-18T13:37:35.338Z,3.88
2018-03-18T13:40:02.926Z,3.97
2018-03-18T13:42:30.386Z,3.88
2018-03-18T13:44:57.846Z,4.27
2018-03-18T13:47:25.325Z,4.21
2018-03-18T13:49:52.814Z,4.71
2018-03-18T13:52:20.281Z,4.59
2018-03-18T13:54:47.746Z,4.41
2018-03-18T13:57:15.204Z,4.52
2018-03-18T13:59:42.665Z,4.51
2018-03-18T14:02:10.102Z,3.95
2018-03-18T14:04:37.550Z,4.20
2018-03-18T14:07:04.996Z,3.91
2018-03-18T14:09:32.483Z,3.79
2018-03-18T14:11:59.959Z,3.50
2018-03-18T14:14:27.441Z,3.79
2018-03-18T14:16:54.900Z,3.87
2018-03-18T14:19:22.437Z,3.70
2018-03-18T14:21:49.904Z,3.47
2018-03-18T14:24:17.362Z,3.50
2018-03-18T14:26:44.863Z,3.53
2018-03-18T14:29:12.391Z,3.35
2018-03-18T14:31:39.838Z,3.40
2018-03-18T14:34:07.291Z,3.28
2018-03-18T14:36:34.742Z,3.51
2018-03-18T14:39:02.275Z,3.30
2018-03-18T14:41:29.763Z,3.31
2018-03-18T14:43:57.231Z,3.26
2018-03-18T14:46:24.686Z,3.26
2018-03-18T14:48:52.145Z,3.29
2018-03-18T14:51:19.641Z,2.92
2018-03-18T14:53:47.140Z,2.87
2018-03-18T14:56:14.578Z,2.66
2018-03-18T14:58:42.035Z,2.90
2018-03-18T15:01:09.522Z,2.76
2018-03-18T15:03:37.064Z,2.82
2018-03-18T15:06:04.567Z,2.88
2018-03-18T15:08:32.074Z,2.80
2018-03-18T15:10:59.540Z,2.53
2018-03-18T15:13:26.990Z,2.47
2018-03-18T15:15:54.451Z,2.26
2018-03-18T15:18:21.944Z,2.04
2018-03-18T15:20:49.355Z,2.26
2018-03-18T15:23:16.804Z,2.07
2018-03-18T15:25:44.287Z,2.14
2018-03-18T15:28:11.869Z,2.14
2018-03-18T15:30:39.393Z,2.04
2018-03-18T15:33:06.858Z,2.28
2018-03-18T15:35:34.299Z,2.04
2018-03-18T15:38:01.794Z,1.89
2018-03-18T15:40:29.828Z,1.93
2018-03-18T15:42:57.337Z,1.93
2018-03-18T15:45:24.794Z,1.63
2018-03-18T15:47:52.302Z,1.86
2018-03-18T15:50:21.157Z,1.70
2018-03-18T15:52:48.606Z,1.60
2018-03-18T15:55:16.266Z,1.64
2018-03-18T15:57:43.716Z,1.86
2018-03-18T16:00:11.183Z,1.78
2018-03-18T16:02:38.619Z,1.83
2018-03-18T16:05:06.094Z,1.85
2018-03-18T16:07:33.597Z,1.78
2018-03-18T16:10:01.079Z,1.59
2018-03-18T16:12:28.541Z,1.49
2018-03-18T16:14:55.986Z,1.62
2018-03-18T16:17:23.513Z,1.66
2018-03-18T16:19:50.982Z,1.54
2018-03-18T16:22:18.498Z,1.54
2018-03-18T16:24:46.005Z,1.42
2018-03-18T16:27:13.456Z,1.35
2018-03-18T16:29:52.691Z,1.40
2018-03-18T16:32:20.200Z,1.25
2018-03-18T16:34:47.798Z,1.19
2018-03-18T16:37:15.270Z,0.97
2018-03-18T16:39:42.764Z,0.98
2018-03-18T16:42:10.260Z,0.94
2018-03-18T16:44:37.781Z,0.94
2018-03-18T16:47:05.226Z,0.92
2018-03-18T16:49:32.667Z,0.90
2018-03-18T16:52:00.120Z,1.12
2018-03-18T16:54:27.655Z,1.14
2018-03-18T16:56:55.132Z,1.06
2018-03-18T16:59:22.704Z,0.97
2018-03-18T17:01:50.169Z,0.67
2018-03-18T17:04:17.652Z,0.74
2018-03-18T17:06:45.119Z,0.76
2018-03-18T17:09:12.586Z,0.62
2018-03-18T17:11:40.341Z,0.57
2018-03-18T17:14:07.807Z,0.42
2018-03-18T17:16:35.457Z,0.59
2018-03-18T17:19:03.001Z,0.59
2018-03-18T17:21:30.592Z,0.34
2018-03-18T17:23:58.155Z,0.41
2018-03-18T17:26:25.630Z,0.40
2018-03-18T17:28:53.101Z,0.37
2018-03-18T17:31:20.579Z,0.38
2018-03-18T17:33:48.224Z,0.33
2018-03-18T17:36:15.856Z,0.36
2018-03-18T17:38:43.328Z,0.34
2018-03-18T17:41:10.887Z,0.15
2018-03-18T17:43:40.903Z,0.11
2018-03-18T17:46:20.238Z,0.22
2018-03-18T17:48:59.527Z,0.14
2018-03-18T17:51:38.890Z,0.13
2018-03-18T17:54:18.141Z,0.21
2018-03-18T17:56:45.587Z,0.11
2018-03-18T17:59:13.054Z,0.23
2018-03-18T18:01:40.617Z,0.20
2018-03-18T18:04:08.205Z,0.27
2018-03-18T18:06:35.966Z,0.33
2018-03-18T18:09:03.446Z,0.18
2018-03-18T18:11:31.648Z,0.27
2018-03-18T18:14:00.157Z,0.14
2018-03-18T18:16:27.681Z,0.15
2018-03-18T18:18:55.326Z,0.04
2018-03-18T18:21:22.937Z,0.06
2018-03-18T18:23:50.449Z,0.10
2018-03-18T18:26:17.902Z,-0.07
2018-03-18T18:28:45.423Z,0.05
2018-03-18T18:31:13.037Z,0.09
2018-03-18T18:33:40.551Z,0.13
2018-03-18T18:36:08.954Z,0.16
2018-03-18T18:38:36.498Z,0.16
2018-03-18T18:41:04.172Z,0.03
2018-03-18T18:43:31.664Z,-0.02
2018-03-18T18:45:59.152Z,0.11
2018-03-18T18:48:26.664Z,0.02
2018-03-18T18:50:54.190Z,0.09
2018-03-18T18:53:21.976Z,0.01
2018-03-18T18:55:50.083Z,-0.02
2018-03-18T18:58:17.554Z,-0.24
2018-03-18T19:00:45.300Z,-0.20
2018-03-18T19:03:12.767Z,-0.15
2018-03-18T19:05:40.293Z,-0.08
2018-03-18T19:08:07.792Z,-0.17
2018-03-18T19:10:35.342Z,-0.04
2018-03-18T19:13:02.861Z,-0.08
2018-03-18T19:15:30.379Z,-0.16
2018-03-18T19:17:57.947Z,-0.12
2018-03-18T19:20:25.508Z,-0.15
2018-03-18T19:22:53.237Z,-0.21
2018-03-18T19:25:22.572Z,-0.12
2018-03-18T19:27:50.275Z,-0.15
2018-03-18T19:30:17.756Z,-0.15
2018-03-18T19:32:45.313Z,-0.12
2018-03-18T19:35:12.972Z,-0.16
2018-03-18T19:37:40.570Z,-0.34
2018-03-18T19:40:08.277Z,-0.30
2018-03-18T19:42:35.780Z,-0.24
2018-03-18T19:45:03.278Z,-0.25
2018-03-18T19:47:30.762Z,-0.25
2018-03-18T19:49:58.392Z,-0.30
2018-03-18T19:52:26.094Z,-0.27
2018-03-18T19:54:53.567Z,-0.31
2018-03-18T19:57:21.024Z,-0.26
2018-03-18T19:59:48.483Z,-0.30
2018-03-18T20:02:15.989Z,-0.33
2018-03-18T20:04:43.605Z,-0.27
2018-03-18T20:07:11.102Z,-0.17
2018-03-18T20:09:38.671Z,-0.25
2018-03-18T20:12:06.178Z,-0.16
2018-03-18T20:14:33.630Z,-0.24
2018-03-18T20:17:01.119Z,-0.11
2018-03-18T20:19:28.620Z,-0.23
2018-03-18T20:21:56.112Z,-0.19
2018-03-18T20:24:23.545Z,-0.27
2018-03-18T20:26:51.051Z,-0.29
2018-03-18T20:29:18.492Z,-0.21
2018-03-18T20:31:46.023Z,-0.18
2018-03-18T20:34:13.571Z,-0.20
2018-03-18T20:36:41.093Z,-0.12
2018-03-18T20:39:08.632Z,-0.13
2018-03-18T20:41:36.175Z,-0.10
2018-03-18T20:44:03.654Z,-0.20
2018-03-18T20:46:31.188Z,-0.13
2018-03-18T20:48:58.723Z,-0.13
2018-03-18T20:51:26.257Z,-0.10
2018-03-18T20:53:53.957Z,-0.12
2018-03-18T20:56:21.463Z,-0.12
2018-03-18T20:58:49.019Z,-0.18
2018-03-18T21:01:16.474Z,-0.23
2018-03-18T21:03:43.971Z,-0.16
2018-03-18T21:06:11.469Z,-0.12
2018-03-18T21:08:38.961Z,-0.13
2018-03-18T21:11:06.401Z,-0.21
2018-03-18T21:13:33.899Z,-0.19
2018-03-18T21:16:01.379Z,-0.12
2018-03-18T21:18:28.971Z,-0.19
2018-03-18T21:20:56.518Z,-0.06
2018-03-18T21:23:23.986Z,-0.09
2018-03-18T21:25:51.436Z,-0.24
2018-03-18T21:28:18.898Z,-0.24
2018-03-18T21:30:46.357Z,-0.13
2018-03-18T21:33:13.989Z,-0.15
2018-03-18T21:35:41.395Z,-0.07
2018-03-18T21:38:08.860Z,-0.11
2018-03-18T21:40:36.473Z,-0.23
2018-03-18T21:43:04.012Z,-0.14
2018-03-18T21:45:31.527Z,-0.24
2018-03-18T21:47:59.004Z,-0.27
2018-03-18T21:50:26.541Z,-0.20
2018-03-18T21:52:53.998Z,-0.17
2018-03-18T21:55:21.453Z,-0.30
2018-03-18T21:57:48.982Z,-0.32
2018-03-18T22:00:16.424Z,-0.19
2018-03-18T22:02:43.987Z,-0.34
2018-03-18T22:05:11.468Z,-0.25
2018-03-18T22:07:38.909Z,-0.17
2018-03-18T22:10:06.345Z,-0.24
2018-03-18T22:12:33.817Z,-0.15
2018-03-18T22:15:01.270Z,-0.10
2018-03-18T22:17:28.721Z,-0.15
2018-03-18T22:19:56.197Z,-0.18
2018-03-18T22:22:23.648Z,-0.06
2018-03-18T22:24:51.105Z,-0.21
2018-03-18T22:27:18.558Z,-0.27
2018-03-18T22:29:46.012Z,-0.21
2018-03-18T22:32:13.455Z,-0.20
2018-03-18T22:34:41.566Z,-0.23
2018-03-18T22:37:09.001Z,-0.28
2018-03-18T22:39:36.463Z,-0.21
2018-03-18T22:42:04.016Z,-0.28
2018-03-18T22:44:31.470Z,-0.16
2018-03-18T22:46:58.923Z,-0.06
2018-03-18T22:49:26.416Z,-0.15
2018-03-18T22:51:53.897Z,-0.12
2018-03-18T22:54:21.342Z,-0.19
2018-03-18T22:56:48.782Z,-0.21
2018-03-18T22:59:16.226Z,-0.15
2018-03-18T23:01:43.658Z,-0.12
2018-03-18T23:04:11.126Z,-0.13
2018-03-18T23:06:38.590Z,-0.11
2018-03-18T23:09:06.046Z,-0.16
2018-03-18T23:11:33.514Z,-0.13
2018-03-18T23:14:00.962Z,-0.26
2018-03-18T23:16:28.410Z,-0.30
2018-03-18T23:18:55.867Z,-0.12
2018-03-18T23:21:23.337Z,-0.19
2018-03-18T23:23:50.784Z,-0.21
2018-03-18T23:26:18.245Z,-0.09
2018-03-18T23:28:45.701Z,-0.18
2018-03-18T23:31:13.145Z,-0.22
2018-03-18T23:33:40.602Z,-0.26
2018-03-18T23:36:08.054Z,-0.17
2018-03-18T23:38:35.526Z,-0.40
2018-03-18T23:41:02.969Z,-0.25
2018-03-18T23:43:30.421Z,-0.27
2018-03-18T23:45:57.906Z,-0.49
2018-03-18T23:48:25.409Z,-0.43
2018-03-18T23:50:52.854Z,-0.36
2018-03-18T23:53:20.298Z,-0.32
2018-03-18T23:55:47.754Z,-0.45
2018-03-18T23:58:15.193Z,-0.38
